Time;durP1;ratioP1;P1;durP2;ratioP2;P2;SDS_P1;SDS_P2;PMS_P1;PMS_P2;Temp;Humidity;BMP_temperature;BMP_pressure;BME280_temperature;BME280_humidity;BME280_pressure;Samples;Min_cycle;Max_cycle;Signal;HPM_P1;HPM_P2
2022/10/02 00:00:00;;;;;;;11.65;5.22;;;;;;;25.19;61.88;100665.40;1381275;102;21181;-52
2022/10/02 00:02:43;;;;;;;12.03;5.30;;;;;;;25.19;61.81;100660.07;1374146;103;21157;-53
2022/10/02 00:05:18;;;;;;;12.75;5.37;;;;;;;25.19;61.81;100654.75;1363756;103;21188;-54
2022/10/02 00:08:03;;;;;;;11.20;6.28;;;;;;;25.20;61.80;100656.45;1386086;102;21195;-52
2022/10/02 00:10:53;;;;;;;12.98;5.58;;;;;;;25.20;61.82;100658.27;1376504;103;21157;-53
2022/10/02 00:13:26;;;;;;;11.67;4.93;;;;;;;25.20;61.89;100651.13;1378806;102;21614;-52
2022/10/02 00:15:52;;;;;;;12.68;4.92;;;;;;;25.21;61.90;100651.47;1385396;101;21135;-52
2022/10/02 00:18:24;;;;;;;11.10;5.55;;;;;;;25.21;61.94;100658.13;1399885;101;21117;-54
2022/10/02 00:21:01;;;;;;;9.20;4.80;;;;;;;25.21;61.97;100655.47;1408672;100;21120;-53
2022/10/02 00:23:51;;;;;;;11.12;5.17;;;;;;;25.21;61.90;100666.11;1409975;101;21659;-53
2022/10/02 00:26:23;;;;;;;13.40;5.62;;;;;;;25.22;61.77;100669.16;1399989;101;21134;-52
2022/10/02 00:29:15;;;;;;;11.73;5.67;;;;;;;25.23;61.71;100650.85;1439280;95;21691;-53
2022/10/02 00:31:57;;;;;;;;;;;;;;;25.23;61.72;100648.19;1490764;94;21162;-53
2022/10/02 00:34:41;;;;;;;13.30;5.83;;;;;;;25.25;61.67;100624.08;1480862;94;20453;-53
2022/10/02 00:37:39;;;;;;;10.35;5.87;;;;;;;25.26;61.54;100623.98;1455045;97;21588;-52
2022/10/02 00:40:43;;;;;;;13.50;5.40;;;;;;;25.27;61.48;100627.46;1444340;98;21171;-52
2022/10/02 00:43:18;;;;;;;12.78;6.20;;;;;;;25.28;61.45;100619.36;1442120;98;21617;-53
2022/10/02 00:46:08;;;;;;;15.90;5.33;;;;;;;25.29;61.46;100618.38;1428975;99;21252;-53
2022/10/02 00:49:17;;;;;;;12.00;5.53;;;;;;;25.29;61.53;100613.05;1448839;97;21125;-53
2022/10/02 00:52:06;;;;;;;11.20;5.37;;;;;;;25.30;61.52;100617.41;1454560;96;21132;-53
2022/10/02 00:55:07;;;;;;;12.23;5.72;;;;;;;25.29;61.60;100618.38;1479685;96;21173;-52
2022/10/02 00:58:02;;;;;;;20.37;6.37;;;;;;;25.29;61.68;100616.19;1477299;96;21188;-52
2022/10/02 01:00:30;;;;;;;13.15;6.00;;;;;;;25.28;61.80;100622.03;1449595;97;21641;-53
2022/10/02 01:03:17;;;;;;;11.90;6.08;;;;;;;25.27;61.94;100620.32;1456398;97;21591;-53
2022/10/02 01:05:44;;;;;;;13.93;6.55;;;;;;;25.27;61.97;100622.98;1451527;97;21110;-53
2022/10/02 01:08:11;;;;;;;11.65;5.92;;;;;;;25.27;62.01;100620.80;1443310;97;21452;-52
2022/10/02 01:10:37;;;;;;;13.35;5.97;;;;;;;25.26;62.07;100631.97;1497298;93;21103;-52
2022/10/02 01:13:04;;;;;;;18.65;6.50;;;;;;;25.26;62.14;100644.43;1526824;92;21140;-53
2022/10/02 01:15:35;;;;;;;12.78;5.92;;;;;;;25.26;62.25;100685.71;1502771;93;22205;-53
2022/10/02 01:18:04;;;;;;;15.18;6.20;;;;;;;25.26;62.25;100719.86;1509271;93;21580;-53
2022/10/02 01:20:43;;;;;;;10.40;5.40;;;;;;;25.26;62.31;100740.31;1516104;92;21163;-53
2022/10/02 01:23:36;;;;;;;11.53;5.72;;;;;;;25.23;62.38;100729.41;1460955;96;21610;-53
2022/10/02 01:26:03;;;;;;;13.28;5.75;;;;;;;25.20;62.53;100739.01;1478172;96;21135;-53
2022/10/02 01:28:30;;;;;;;20.10;6.53;;;;;;;25.18;62.68;100752.08;1475381;94;21189;-52
2022/10/02 01:31:01;;;;;;;21.17;7.72;;;;;;;25.15;62.99;100747.84;1489021;95;21123;-52
2022/10/02 01:33:29;;;;;;;24.00;8.05;;;;;;;25.13;63.20;100734.30;1542075;90;21199;-53
2022/10/02 01:35:55;;;;;;;27.55;8.08;;;;;;;25.12;63.08;100742.79;1529854;91;21156;-53
2022/10/02 01:38:22;;;;;;;26.35;8.78;;;;;;;25.11;62.79;100733.09;1566385;85;21105;-54
2022/10/02 01:40:49;;;;;;;17.07;7.47;;;;;;;25.09;62.44;100740.84;1647657;86;21646;-53
2022/10/02 01:43:30;;;;;;;17.50;7.83;;;;;;;25.09;61.81;100725.72;1645949;86;21087;-54
2022/10/02 01:46:00;;;;;;;;;;;;;;;25.06;61.14;100708.66;1658926;85;21056;-53
2022/10/02 01:48:50;;;;;;;12.35;6.40;;;;;;;25.06;60.89;100713.98;1673794;84;20111;-53
2022/10/02 01:51:49;;;;;;;11.40;6.85;;;;;;;25.06;60.77;100707.32;1635718;87;21219;-53
2022/10/02 01:54:27;;;;;;;14.55;7.62;;;;;;;25.05;60.63;100704.31;1612676;88;21103;-53
2022/10/02 01:57:32;;;;;;;11.95;8.05;;;;;;;25.06;60.34;100713.16;1495015;95;21629;-54
2022/10/02 02:00:07;;;;;;;12.05;8.25;;;;;;;25.05;60.14;100706.98;1488784;96;21626;-52
2022/10/02 02:03:06;;;;;;;11.97;7.17;;;;;;;25.06;59.99;100709.16;1492157;95;21126;-53
2022/10/02 02:05:51;;;;;;;21.68;8.95;;;;;;;25.06;59.77;100712.64;1490961;95;21113;-53
2022/10/02 02:08:29;;;;;;;10.82;8.43;;;;;;;25.03;59.76;100705.78;1485717;95;21084;-55
2022/10/02 02:11:03;;;;;;;16.77;9.30;;;;;;;25.02;59.62;100713.39;1522379;93;21668;-52
2022/10/02 02:13:35;;;;;;;12.90;9.08;;;;;;;24.99;59.36;100684.85;1547251;89;21100;-54
2022/10/02 02:16:23;;;;;;;13.95;8.33;;;;;;;24.94;59.36;100680.38;1557858;89;21599;-53
2022/10/02 02:19:15;;;;;;;13.18;7.78;;;;;;;24.89;59.15;100690.58;1566592;90;21125;-52
2022/10/02 02:21:46;;;;;;;15.20;8.13;;;;;;;24.82;59.19;100667.61;1562044;90;21537;-52
2022/10/02 02:24:46;;;;;;;12.05;6.47;;;;;;;24.77;59.19;100658.32;1556541;91;21073;-54
2022/10/02 02:27:16;;;;;;;9.33;5.80;;;;;;;24.73;59.14;100664.83;1543817;91;21081;-53
2022/10/02 02:29:44;;;;;;;7.33;4.00;;;;;;;24.65;58.92;100645.95;1554409;90;21137;-53
2022/10/02 02:32:13;;;;;;;6.55;3.72;;;;;;;24.58;58.69;100642.12;1583421;88;22944;-53
2022/10/02 02:34:45;;;;;;;7.92;4.08;;;;;;;24.51;58.79;100635.60;1573517;87;21040;-54
2022/10/02 02:37:18;;;;;;;5.60;2.98;;;;;;;24.45;58.91;100622.80;1608643;87;21036;-53
2022/10/02 02:39:56;;;;;;;4.08;2.45;;;;;;;24.40;58.92;100607.21;1618709;87;21088;-53
2022/10/02 02:42:25;;;;;;;4.75;2.22;;;;;;;24.37;58.78;100606.63;1611547;87;21040;-53
2022/10/02 02:45:05;;;;;;;4.92;1.90;;;;;;;24.33;58.62;100599.86;1606431;87;21088;-53
2022/10/02 02:47:39;;;;;;;2.25;1.35;;;;;;;24.28;58.57;100596.75;1617214;87;21083;-52
2022/10/02 02:50:35;;;;;;;3.02;1.60;;;;;;;24.23;58.37;100587.30;1582793;89;21052;-54
2022/10/02 02:53:10;;;;;;;3.77;1.62;;;;;;;24.19;58.26;100584.53;1595364;87;21122;-53
2022/10/02 02:55:43;;;;;;;5.58;1.87;;;;;;;24.15;58.40;100566.31;1619058;87;21089;-53
2022/10/02 02:58:42;;;;;;;3.70;1.52;;;;;;;24.13;58.31;100559.77;1627461;87;21049;-53
2022/10/02 03:01:09;;;;;;;1.57;1.30;;;;;;;24.11;58.38;100561.70;1633552;86;21085;-53
2022/10/02 03:03:36;;;;;;;3.42;1.40;;;;;;;24.11;58.24;100551.08;1570217;89;21143;-53
2022/10/02 03:06:32;;;;;;;2.98;1.32;;;;;;;24.09;58.29;100529.09;1609183;87;21070;-53
2022/10/02 03:09:00;;;;;;;5.08;1.60;;;;;;;24.09;58.17;100525.10;1614573;87;21068;-53
2022/10/02 03:11:53;;;;;;;2.00;1.55;;;;;;;24.08;58.16;100538.05;1621253;87;21160;-53
2022/10/02 03:14:38;;;;;;;2.47;1.10;;;;;;;24.07;58.21;100528.37;1569241;89;21102;-53
2022/10/02 03:17:19;;;;;;;1.50;0.90;;;;;;;24.06;58.20;100516.06;1580362;90;21084;-53
2022/10/02 03:20:11;;;;;;;2.67;1.10;;;;;;;24.05;58.12;100503.72;1578835;90;21179;-53
2022/10/02 03:23:17;;;;;;;9.55;2.77;;;;;;;24.05;58.12;100501.06;1578257;90;21092;-54
2022/10/02 03:25:58;;;;;;;11.30;2.47;;;;;;;24.03;58.04;100497.69;1577110;90;21094;-53
2022/10/02 03:28:30;;;;;;;6.55;2.12;;;;;;;24.03;58.18;100503.01;1545482;91;21553;-53
2022/10/02 03:30:58;;;;;;;9.05;2.55;;;;;;;24.02;58.24;100492.47;1554710;91;21066;-55
2022/10/02 03:33:24;;;;;;;8.55;1.98;;;;;;;24.02;58.24;100481.84;1555088;91;21524;-54
2022/10/02 03:35:51;;;;;;;7.40;2.35;;;;;;;24.01;58.38;100486.30;1553295;91;21128;-53
2022/10/02 03:38:18;;;;;;;3.30;1.20;;;;;;;24.03;58.57;100497.69;1541195;92;21130;-53
2022/10/02 03:40:45;;;;;;;2.52;1.10;;;;;;;24.03;58.70;100518.07;1533637;92;21061;-54
2022/10/02 03:43:20;;;;;;;2.25;0.90;;;;;;;24.03;58.68;100528.70;1550098;92;21066;-53
2022/10/02 03:45:47;;;;;;;2.62;0.98;;;;;;;24.02;58.57;100535.86;1533779;92;21698;-53
2022/10/02 03:48:14;;;;;;;2.80;1.20;;;;;;;24.04;58.52;100533.09;1534233;92;21116;-53
2022/10/02 03:50:41;;;;;;;3.45;1.30;;;;;;;24.03;58.42;100532.24;1537166;92;21162;-53
2022/10/02 03:53:17;;;;;;;5.25;1.80;;;;;;;24.04;58.38;100530.44;1561495;91;21145;-53
2022/10/02 03:55:53;;;;;;;1.92;1.40;;;;;;;24.03;58.33;100529.59;1571156;89;21130;-54
2022/10/02 03:58:20;;;;;;;5.15;1.65;;;;;;;24.02;58.41;100511.94;1566174;89;21072;-53
2022/10/02 04:01:09;;;;;;;3.12;1.25;;;;;;;24.03;58.54;100507.44;1604325;88;21111;-53
2022/10/02 04:03:41;;;;;;;6.92;2.35;;;;;;;24.01;58.72;100487.63;1589872;89;21143;-52
2022/10/02 04:06:22;;;;;;;3.17;1.55;;;;;;;24.00;58.74;100476.66;1588152;89;21078;-53
2022/10/02 04:09:07;;;;;;;3.95;1.47;;;;;;;24.00;58.83;100471.82;1598096;89;21215;-53
2022/10/02 04:11:51;;;;;;;5.87;1.95;;;;;;;23.99;58.97;100474.11;1601964;89;21157;-53
2022/10/02 04:14:25;;;;;;;3.22;1.40;;;;;;;23.99;59.07;100481.59;1604673;89;21041;-53
2022/10/02 04:17:03;;;;;;;2.67;1.27;;;;;;;23.97;59.26;100470.25;1606537;88;21163;-53
2022/10/02 04:19:40;;;;;;;3.87;1.25;;;;;;;23.96;59.36;100454.44;1611542;87;21085;-53
2022/10/02 04:22:20;;;;;;;3.50;1.17;;;;;;;23.95;59.44;100454.06;1633547;86;21088;-53
2022/10/02 04:25:17;;;;;;;5.15;1.47;;;;;;;23.95;59.51;100469.53;1640046;85;21158;-52
2022/10/02 04:27:55;;;;;;;5.28;1.62;;;;;;;23.94;59.56;100495.77;1679650;85;21623;-53
2022/10/02 04:30:22;;;;;;;2.65;1.32;;;;;;;23.94;59.58;100495.77;1718646;82;21104;-53
2022/10/02 04:32:49;;;;;;;3.20;1.62;;;;;;;23.93;59.66;100490.08;1720558;83;21038;-53
2022/10/02 04:35:57;;;;;;;3.50;1.30;;;;;;;23.93;59.68;100479.44;1696064;83;21058;-53
2022/10/02 04:38:57;;;;;;;3.08;1.27;;;;;;;23.94;59.73;100473.66;1662832;85;21126;-53
2022/10/02 04:42:01;;;;;;;2.47;1.55;;;;;;;23.94;59.78;100461.22;1604110;87;21168;-53
2022/10/02 04:45:10;;;;;;;4.50;1.45;;;;;;;23.93;59.69;100458.19;1564564;90;21067;-53
2022/10/02 04:48:10;;;;;;;3.60;1.40;;;;;;;23.94;59.76;100453.24;1581239;89;21141;-53
2022/10/02 04:50:45;;;;;;;4.47;1.65;;;;;;;23.95;59.66;100436.79;1567242;88;21123;-54
2022/10/02 04:53:26;;;;;;;4.78;1.60;;;;;;;23.95;59.44;100424.83;1574291;89;21099;-53
2022/10/02 04:56:04;;;;;;;7.15;2.40;;;;;;;23.95;59.31;100428.34;1496077;93;21242;-53
2022/10/02 04:58:56;;;;;;;10.20;3.15;;;;;;;23.95;59.32;100434.98;1487238;95;21640;-53
2022/10/02 05:01:44;;;;;;;7.58;2.87;;;;;;;23.96;59.33;100439.34;1506672;92;21292;-53
2022/10/02 05:04:38;;;;;;;10.40;2.62;;;;;;;23.97;59.47;100442.34;1488660;94;21126;-54
2022/10/02 05:07:30;;;;;;;6.72;2.27;;;;;;;24.00;59.43;100434.13;1488302;94;21177;-52
2022/10/02 05:10:08;;;;;;;7.90;2.37;;;;;;;24.02;59.35;100428.20;1499911;94;21174;-54
2022/10/02 05:12:49;;;;;;;6.28;2.12;;;;;;;24.02;59.31;100416.25;1514743;93;21168;-53
2022/10/02 05:15:38;;;;;;;6.85;2.35;;;;;;;24.05;59.13;100420.50;1495995;94;21147;-53
2022/10/02 05:18:29;;;;;;;8.63;2.60;;;;;;;24.05;59.00;100421.33;1524723;92;21546;-54
2022/10/02 05:21:35;;;;;;;6.85;2.72;;;;;;;24.06;58.98;100418.19;1541840;91;21082;-54
2022/10/02 05:24:07;;;;;;;9.43;2.80;;;;;;;24.08;58.92;100421.56;1568627;88;21202;-54
2022/10/02 05:27:04;;;;;;;10.78;3.10;;;;;;;24.08;58.92;100427.73;1601924;87;21092;-54
2022/10/02 05:30:08;;;;;;;9.48;3.30;;;;;;;24.10;58.92;100430.25;1533492;91;21061;-53
2022/10/02 05:33:13;;;;;;;8.90;3.00;;;;;;;24.10;58.79;100437.75;1515214;93;21073;-53
2022/10/02 05:35:59;;;;;;;10.20;2.72;;;;;;;24.11;58.71;100444.73;1517664;93;21071;-55
2022/10/02 05:38:56;;;;;;;6.22;2.98;;;;;;;24.12;58.68;100446.45;1462758;97;21244;-53
2022/10/02 05:41:43;;;;;;;6.05;2.42;;;;;;;24.13;58.68;100446.78;1459690;97;21145;-54
2022/10/02 05:44:20;;;;;;;4.55;1.80;;;;;;;24.16;58.65;100457.66;1445227;97;21254;-53
2022/10/02 05:47:16;;;;;;;3.70;1.52;;;;;;;24.16;58.62;100458.52;1463978;96;21115;-53
2022/10/02 05:49:59;;;;;;;1.87;1.50;;;;;;;24.19;58.49;100460.08;1496651;94;21150;-54
2022/10/02 05:52:29;;;;;;;;;;;;;;;24.20;58.39;100467.06;1503496;94;21151;-53
2022/10/02 05:55:16;;;;;;;6.45;2.08;;;;;;;24.20;58.09;100462.60;1501727;94;20174;-53
2022/10/02 05:57:53;;;;;;;4.83;2.05;;;;;;;24.19;57.93;100467.55;1499251;93;21757;-53
2022/10/02 06:00:47;;;;;;;2.70;1.75;;;;;;;24.19;57.73;100454.77;1502492;93;21115;-54
2022/10/02 06:03:52;;;;;;;3.62;1.67;;;;;;;24.17;57.57;100454.86;1497544;93;21790;-53
2022/10/02 06:06:27;;;;;;;5.35;1.87;;;;;;;24.16;57.41;100459.84;1497399;93;21072;-53
2022/10/02 06:09:11;;;;;;;4.17;2.10;;;;;;;24.14;57.39;100476.88;1497061;94;21127;-53
2022/10/02 06:11:45;;;;;;;2.67;1.85;;;;;;;24.13;57.39;100491.98;1508680;93;21121;-54
2022/10/02 06:14:38;;;;;;;3.42;2.17;;;;;;;24.11;57.33;100490.44;1526704;93;21144;-53
2022/10/02 06:17:32;;;;;;;2.08;1.40;;;;;;;24.08;57.38;100510.13;1603402;88;21247;-53
2022/10/02 06:20:37;;;;;;;2.80;1.50;;;;;;;24.06;57.43;100509.89;1600246;88;21063;-53
2022/10/02 06:23:19;;;;;;;3.77;1.55;;;;;;;24.03;57.50;100509.66;1644253;85;21169;-53
2022/10/02 06:25:48;;;;;;;;;;;;;;;23.99;57.69;100517.48;1649985;85;21091;-53
2022/10/02 06:28:37;;;;;;;2.90;1.27;;;;;;;23.98;57.96;100515.81;1601787;88;20148;-53
2022/10/02 06:31:10;;;;;;;6.28;1.98;;;;;;;23.95;58.28;100514.71;1602048;88;21089;-53
2022/10/02 06:33:37;;;;;;;2.85;1.30;;;;;;;23.92;58.51;100514.98;1613642;87;21188;-53
2022/10/02 06:36:25;;;;;;;4.45;1.75;;;;;;;23.89;58.76;100511.22;1606267;88;21108;-54
2022/10/02 06:39:40;;;;;;;3.80;2.00;;;;;;;23.87;58.88;100504.33;1584082;88;21167;-54
2022/10/02 06:42:33;;;;;;;2.98;1.20;;;;;;;23.84;59.11;100508.11;1587834;89;21564;-53
2022/10/02 06:45:20;;;;;;;3.95;1.40;;;;;;;23.80;59.32;100501.83;1586107;89;21123;-55
2022/10/02 06:48:02;;;;;;;1.98;1.70;;;;;;;23.76;59.49;100496.41;1509172;93;21610;-54
2022/10/02 06:51:02;;;;;;;3.12;1.70;;;;;;;23.75;59.67;100500.02;1510869;94;21076;-54
2022/10/02 06:53:52;;;;;;;3.60;1.55;;;;;;;23.72;59.87;100498.44;1596113;88;21065;-53
2022/10/02 06:56:37;;;;;;;5.00;1.98;;;;;;;23.71;59.90;100496.77;1594083;88;21136;-54
2022/10/02 06:59:24;;;;;;;5.08;1.82;;;;;;;23.68;60.03;100496.99;1581382;90;21114;-54
2022/10/02 07:02:05;;;;;;;3.12;1.55;;;;;;;23.66;60.23;100490.96;1593868;88;21101;-54
2022/10/02 07:05:06;;;;;;;4.30;1.82;;;;;;;23.66;60.31;100496.78;1563847;89;21132;-54
2022/10/02 07:08:04;;;;;;;2.90;1.70;;;;;;;23.65;60.39;100491.95;1590605;88;21091;-54
2022/10/02 07:11:00;;;;;;;5.50;1.80;;;;;;;23.64;60.35;100494.73;1583785;89;21572;-53
2022/10/02 07:14:00;;;;;;;4.03;2.30;;;;;;;23.65;60.33;100498.59;1586866;89;21133;-53
2022/10/02 07:17:05;;;;;;;3.83;2.37;;;;;;;23.63;60.45;100501.84;1578076;89;21699;-54
2022/10/02 07:20:05;;;;;;;2.10;1.60;;;;;;;23.64;60.59;100501.37;1569893;88;21109;-54
2022/10/02 07:22:43;;;;;;;3.20;2.22;;;;;;;23.62;60.74;100500.14;1598786;87;21077;-54
2022/10/02 07:25:41;;;;;;;2.50;1.52;;;;;;;23.63;60.72;100501.84;1609650;87;21108;-54
2022/10/02 07:28:33;;;;;;;3.55;1.80;;;;;;;23.63;60.64;100499.19;1571453;89;21186;-54
2022/10/02 07:31:30;;;;;;;3.83;1.90;;;;;;;23.60;60.69;100499.42;1632283;84;21499;-54
2022/10/02 07:34:19;;;;;;;4.60;1.98;;;;;;;23.57;60.87;100504.99;1661918;85;21667;-54
2022/10/02 07:37:19;;;;;;;3.02;1.72;;;;;;;23.55;60.90;100504.27;1658422;84;21074;-54
2022/10/02 07:40:23;;;;;;;2.08;1.82;;;;;;;23.55;60.99;100506.92;1682620;83;21017;-54
2022/10/02 07:43:05;;;;;;;3.05;2.45;;;;;;;23.53;60.91;100511.52;1688837;83;21046;-54
2022/10/02 07:45:51;;;;;;;4.33;2.80;;;;;;;23.51;61.04;100517.44;1693494;83;21033;-54
2022/10/02 07:48:54;;;;;;;3.90;2.70;;;;;;;23.51;61.10;100525.40;1690478;83;21081;-54
2022/10/02 07:51:48;;;;;;;3.92;2.55;;;;;;;23.52;61.15;100532.38;1659640;85;21022;-54
2022/10/02 07:55:02;;;;;;;5.28;3.02;;;;;;;23.52;60.84;100535.05;1682129;83;20989;-54
2022/10/02 07:57:59;;;;;;;3.70;3.27;;;;;;;23.48;60.81;100538.91;1748675;80;21037;-54
2022/10/02 08:00:30;;;;;;;5.95;3.90;;;;;;;23.43;60.83;100541.09;1746784;80;21075;-55
2022/10/02 08:03:23;;;;;;;5.17;3.87;;;;;;;23.38;60.89;100540.12;1751155;80;21142;-53
2022/10/02 08:05:55;;;;;;;5.25;4.28;;;;;;;23.36;60.85;100543.85;1715595;81;21092;-53
2022/10/02 08:08:57;;;;;;;5.30;3.62;;;;;;;23.32;60.81;100545.91;1722247;81;21039;-54
2022/10/02 08:11:30;;;;;;;4.20;3.77;;;;;;;23.33;60.97;100549.38;1715875;82;21074;-54
2022/10/02 08:14:02;;;;;;;5.53;3.72;;;;;;;23.37;60.89;100545.05;1710647;82;21009;-53
2022/10/02 08:16:35;;;;;;;6.50;3.27;;;;;;;23.39;60.75;100547.10;1690557;84;21014;-54
2022/10/02 08:19:05;;;;;;;4.03;3.62;;;;;;;23.42;60.57;100552.66;1651904;85;21151;-53
2022/10/02 08:21:37;;;;;;;3.98;3.58;;;;;;;23.46;60.54;100552.78;1683472;83;21074;-53
2022/10/02 08:24:08;;;;;;;4.40;3.37;;;;;;;23.49;60.23;100548.58;1687762;83;21139;-53
2022/10/02 08:26:46;;;;;;;3.62;3.33;;;;;;;23.48;59.79;100556.17;1621278;86;21069;-53
2022/10/02 08:29:27;;;;;;;4.83;3.10;;;;;;;23.47;59.43;100556.30;1621293;87;21569;-54
2022/10/02 08:31:53;;;;;;;3.58;3.27;;;;;;;23.42;59.13;100557.97;1587355;88;21173;-53
2022/10/02 08:34:22;;;;;;;5.15;3.22;;;;;;;23.38;59.30;100565.81;1615510;88;21074;-53
2022/10/02 08:37:01;;;;;;;3.55;3.20;;;;;;;23.35;59.42;100566.04;1607685;88;21136;-53
2022/10/02 08:39:50;;;;;;;3.87;3.45;;;;;;;23.36;59.60;100578.37;1567835;90;21617;-54
2022/10/02 08:42:48;;;;;;;3.62;2.70;;;;;;;23.38;59.28;100563.16;1611132;88;21065;-53
2022/10/02 08:45:46;;;;;;;2.80;2.60;;;;;;;23.39;58.90;100563.03;1616443;87;21642;-53
2022/10/02 08:48:41;;;;;;;4.30;2.47;;;;;;;23.35;58.52;100563.38;1558929;89;21044;-53
2022/10/02 08:51:50;;;;;;;2.50;2.27;;;;;;;23.27;58.41;100557.80;1572820;89;21104;-53
2022/10/02 08:54:54;;;;;;;7.72;2.60;;;;;;;23.23;58.41;100558.99;1578877;88;21072;-54
2022/10/02 08:57:53;;;;;;;2.52;2.33;;;;;;;23.22;58.25;100567.94;1612375;88;21259;-53
2022/10/02 09:00:48;;;;;;;2.98;2.47;;;;;;;23.23;58.47;100564.30;1616616;87;21185;-53
2022/10/02 09:03:48;;;;;;;2.60;2.40;;;;;;;23.21;58.01;100568.88;1629424;87;21627;-53
2022/10/02 09:06:53;;;;;;;2.98;2.45;;;;;;;23.17;57.90;100564.30;1628536;87;21551;-53
2022/10/02 09:10:01;;;;;;;2.87;2.10;;;;;;;23.18;57.84;100561.17;1620181;86;21104;-53
2022/10/02 09:12:49;;;;;;;2.75;2.00;;;;;;;23.16;57.73;100559.94;1632692;85;21542;-53
2022/10/02 09:15:19;;;;;;;2.52;2.33;;;;;;;23.09;57.35;100563.19;1613151;87;21154;-54
2022/10/02 09:18:06;;;;;;;2.02;1.92;;;;;;;23.04;57.32;100575.98;1656336;85;21057;-53
2022/10/02 09:21:15;;;;;;;3.72;2.60;;;;;;;22.99;57.44;100577.66;1673799;84;21115;-53
2022/10/02 09:24:00;;;;;;;3.17;2.40;;;;;;;22.97;57.77;100582.23;1699640;82;21032;-53
2022/10/02 09:26:46;;;;;;;2.75;2.30;;;;;;;22.97;58.00;100584.03;1711496;82;21511;-52
2022/10/02 09:29:33;;;;;;;2.92;2.42;;;;;;;22.96;58.27;100584.98;1716449;82;21129;-53
2022/10/02 09:32:35;;;;;;;3.12;2.83;;;;;;;22.95;58.27;100587.28;1587908;90;21077;-53
2022/10/02 09:35:39;;;;;;;2.93;2.60;;;;;;;22.94;58.47;100580.27;1475791;96;21106;-55
2022/10/02 09:38:29;;;;;;;6.00;3.10;;;;;;;22.92;58.68;100585.70;1488269;96;21666;-53
2022/10/02 09:41:36;;;;;;;4.22;2.70;;;;;;;22.94;59.01;100588.23;1478869;96;21149;-53
2022/10/02 09:44:23;;;;;;;3.50;2.67;;;;;;;22.98;58.95;100587.89;1466972;96;21116;-54
2022/10/02 09:47:24;;;;;;;4.87;3.20;;;;;;;23.00;58.99;100585.14;1419493;99;21147;-53
2022/10/02 09:50:48;;;;;;;3.25;2.95;;;;;;;23.07;58.94;100576.59;1434869;97;21593;-53
2022/10/02 09:53:29;;;;;;;5.42;2.95;;;;;;;23.07;58.94;100576.59;1409531;100;21118;-54
2022/10/02 09:56:26;;;;;;;3.20;2.87;;;;;;;23.09;58.87;100581.77;1407424;101;21634;-54
2022/10/02 09:59:33;;;;;;;2.58;2.33;;;;;;;23.10;58.77;100584.81;1408869;100;21127;-53
2022/10/02 10:02:35;;;;;;;4.67;2.35;;;;;;;23.09;58.49;100593.71;1414787;100;21161;-53
2022/10/02 10:05:30;;;;;;;8.73;3.22;;;;;;;23.06;58.10;100601.42;1397907;100;21135;-53
2022/10/02 10:08:13;;;;;;;2.62;2.42;;;;;;;22.98;58.40;100606.97;1398564;100;21157;-53
2022/10/02 10:11:19;;;;;;;4.50;2.50;;;;;;;22.84;58.21;100600.50;1435696;98;21214;-53
2022/10/02 10:14:24;;;;;;;3.83;2.20;;;;;;;22.72;58.64;100598.29;1452538;97;21076;-53
2022/10/02 10:17:40;;;;;;;3.45;2.80;;;;;;;22.62;58.70;100595.48;1454442;97;21197;-53
2022/10/02 10:20:50;;;;;;;3.85;2.50;;;;;;;22.59;59.17;100590.39;1452177;97;21217;-53
2022/10/02 10:23:34;;;;;;;2.90;2.17;;;;;;;22.59;59.68;100606.30;1445164;97;21098;-53
2022/10/02 10:26:42;;;;;;;2.55;2.17;;;;;;;22.65;59.42;100607.64;1493482;94;21123;-53
2022/10/02 10:29:57;;;;;;;2.70;2.10;;;;;;;22.68;59.26;100607.44;1496279;95;21121;-53
2022/10/02 10:32:48;;;;;;;2.37;2.15;;;;;;;22.75;59.16;100605.18;1499471;95;21154;-53
2022/10/02 10:35:29;;;;;;;4.83;2.10;;;;;;;22.81;58.91;100597.62;1507651;93;21135;-53
2022/10/02 10:38:31;;;;;;;1.80;1.55;;;;;;;22.85;57.93;100594.25;1502794;95;21122;-53
2022/10/02 10:41:42;;;;;;;2.02;1.25;;;;;;;22.84;56.66;100589.88;1462148;96;21121;-52
2022/10/02 10:44:37;;;;;;;1.67;1.47;;;;;;;22.79;54.96;100591.58;1430079;98;21204;-53
2022/10/02 10:47:27;;;;;;;1.27;1.02;;;;;;;22.76;54.03;100593.13;1508173;94;21146;-52
2022/10/02 10:50:43;;;;;;;1.35;0.90;;;;;;;22.77;53.23;100588.67;1492608;95;21648;-52
2022/10/02 10:53:30;;;;;;;1.00;0.90;;;;;;;22.76;53.34;100580.33;1488772;95;21125;-52
2022/10/02 10:56:16;;;;;;;0.82;0.82;;;;;;;22.78;53.08;100581.06;1526112;93;21194;-52
2022/10/02 10:59:11;;;;;;;1.00;0.88;;;;;;;22.77;52.61;100564.33;1494181;94;21107;-52
2022/10/02 11:02:01;;;;;;;1.22;0.85;;;;;;;22.76;52.18;100563.09;1508949;94;21151;-52
2022/10/02 11:05:07;;;;;;;0.85;0.82;;;;;;;22.76;52.36;100565.27;1504455;95;21189;-52
2022/10/02 11:07:46;;;;;;;1.50;1.10;;;;;;;22.82;52.71;100569.26;1467497;96;21155;-52
2022/10/02 11:10:30;;;;;;;3.00;0.90;;;;;;;22.93;52.96;100577.27;1483158;96;21145;-52
2022/10/02 11:13:18;;;;;;;1.17;1.00;;;;;;;23.02;52.56;100571.27;1483016;96;21160;-52
2022/10/02 11:16:42;;;;;;;0.88;0.80;;;;;;;23.12;52.27;100580.23;1470060;95;21128;-52
2022/10/02 11:19:40;;;;;;;1.52;1.02;;;;;;;23.22;52.14;100575.91;1517874;94;21091;-51
2022/10/02 11:22:17;;;;;;;1.05;0.95;;;;;;;23.37;52.13;100582.70;1508260;94;21106;-51
2022/10/02 11:25:26;;;;;;;1.67;1.00;;;;;;;23.46;50.38;100568.72;1508614;94;21613;-52
2022/10/02 11:28:22;;;;;;;1.10;0.90;;;;;;;23.49;50.33;100573.81;1541485;92;21096;-52
2022/10/02 11:31:18;;;;;;;1.25;1.15;;;;;;;23.58;49.81;100577.53;1540314;92;21099;-52
2022/10/02 11:34:10;;;;;;;3.50;1.45;;;;;;;23.66;49.56;100577.30;1566715;91;21091;-51
2022/10/02 11:36:57;;;;;;;1.27;0.85;;;;;;;23.72;49.09;100584.78;1556307;91;21122;-51
2022/10/02 11:39:59;;;;;;;3.02;0.95;;;;;;;23.78;48.50;100588.28;1486618;96;21191;-51
2022/10/02 11:42:55;;;;;;;5.80;1.12;;;;;;;23.78;48.01;100574.99;1538010;90;21182;-51
2022/10/02 11:45:55;;;;;;;1.52;1.22;;;;;;;23.76;46.80;100579.59;1556313;90;21118;-52
2022/10/02 11:49:06;;;;;;;1.42;1.20;;;;;;;23.70;47.26;100580.07;1591887;90;21081;-51
2022/10/02 11:51:57;;;;;;;2.53;1.30;;;;;;;23.73;47.45;100594.45;1554817;91;21149;-51
2022/10/02 11:55:08;;;;;;;3.80;1.50;;;;;;;23.74;46.45;100592.66;1577135;90;21631;-51
2022/10/02 11:58:03;;;;;;;5.15;1.80;;;;;;;23.68;46.22;100589.16;1559226;90;21883;-51
2022/10/02 12:01:17;;;;;;;2.72;1.77;;;;;;;23.57;45.50;100580.69;1586376;89;21124;-52
2022/10/02 12:04:17;;;;;;;3.30;1.40;;;;;;;23.44;44.84;100593.22;1594197;88;21555;-52
2022/10/02 12:07:10;;;;;;;1.82;1.37;;;;;;;23.32;44.79;100590.19;1630615;87;21087;-51
2022/10/02 12:10:02;;;;;;;1.40;1.30;;;;;;;23.22;44.30;100599.32;1619227;87;21092;-51
2022/10/02 12:13:00;;;;;;;1.70;1.52;;;;;;;23.11;44.04;100602.41;1569406;90;21198;-51
2022/10/02 12:16:17;;;;;;;5.33;1.67;;;;;;;22.98;43.29;100601.66;1558029;91;21098;-51
2022/10/02 12:19:15;;;;;;;1.95;1.30;;;;;;;22.88;43.80;100611.24;1661206;85;21096;-52
2022/10/02 12:28:31;;;;;;;1.50;1.30;;;;;;;22.67;44.14;100625.62;1615183;86;21073;-52
2022/10/02 12:31:31;;;;;;;2.47;1.00;;;;;;;22.59;43.55;100637.27;1570453;90;21616;-50
2022/10/02 12:34:08;;;;;;;3.40;1.47;;;;;;;22.52;43.57;100628.06;1547883;91;21135;-50
2022/10/02 12:36:57;;;;;;;1.67;0.90;;;;;;;22.51;43.94;100634.30;1551916;90;21080;-50
2022/10/02 12:39:58;;;;;;;2.33;1.07;;;;;;;22.52;43.96;100636.83;1557025;91;21064;-51
2022/10/02 12:42:52;;;;;;;2.08;1.20;;;;;;;22.53;43.34;100653.13;1535910;92;21119;-50
2022/10/02 12:45:43;;;;;;;2.35;1.40;;;;;;;22.50;43.21;100641.41;1524701;93;21125;-50
2022/10/02 12:48:37;;;;;;;1.30;1.10;;;;;;;22.47;43.91;100646.09;1524735;93;21068;-50
2022/10/02 12:51:34;;;;;;;3.92;1.45;;;;;;;22.45;44.42;100652.84;1468107;95;21138;-51
2022/10/02 12:54:22;;;;;;;1.27;1.15;;;;;;;22.47;43.88;100667.30;1456563;96;21134;-51
2022/10/02 13:00:34;;;;;;;4.20;1.40;;;;;;;22.58;43.48;100678.88;1469504;95;21635;-50
2022/10/02 13:03:21;;;;;;;2.37;1.45;;;;;;;22.60;41.74;100680.95;1526185;93;21134;-51
2022/10/02 13:06:09;;;;;;;2.10;1.60;;;;;;;22.49;42.01;100678.17;1517181;93;21656;-51